createdAt,value
2018-02-19T00:01:28.603Z,86.00
2018-02-19T00:03:56.748Z,85.90
2018-02-19T00:06:26.606Z,86.10
2018-02-19T00:08:54.748Z,86.00
2018-02-19T00:11:22.929Z,86.00
2018-02-19T00:13:51.066Z,86.30
2018-02-19T00:16:24.004Z,86.30
2018-02-19T00:18:52.142Z,86.30
2018-02-19T00:21:20.305Z,86.40
2018-02-19T00:23:49.213Z,86.70
2018-02-19T00:26:34.276Z,86.70
2018-02-19T00:29:02.417Z,86.50
2018-02-19T00:31:30.577Z,86.50
2018-02-19T00:33:58.714Z,86.70
2018-02-19T00:36:28.780Z,86.70
2018-02-19T00:38:56.917Z,86.80
2018-02-19T00:41:25.076Z,86.70
2018-02-19T00:43:53.225Z,86.40
2018-02-19T00:46:22.137Z,86.60
2018-02-19T00:48:50.278Z,86.50
2018-02-19T00:51:19.208Z,86.90
2018-02-19T00:53:47.353Z,86.80
2018-02-19T00:56:16.273Z,87.30
2018-02-19T00:58:44.412Z,87.30
2018-02-19T01:01:13.324Z,87.50
2018-02-19T01:03:41.464Z,87.40
2018-02-19T01:06:10.392Z,87.20
2018-02-19T01:08:38.526Z,87.20
2018-02-19T01:11:07.449Z,87.40
2018-02-19T01:13:35.584Z,87.40
2018-02-19T01:16:03.737Z,87.50
2018-02-19T01:18:31.879Z,87.10
2018-02-19T01:21:00.022Z,87.30
2018-02-19T01:23:28.184Z,87.10
2018-02-19T01:25:59.077Z,87.10
2018-02-19T01:28:27.236Z,87.10
2018-02-19T01:30:55.380Z,87.10
2018-02-19T01:33:24.299Z,87.70
2018-02-19T01:35:52.437Z,87.70
2018-02-19T01:38:21.363Z,88.20
2018-02-19T01:40:49.517Z,88.20
2018-02-19T01:43:17.673Z,88.70
2018-02-19T01:45:54.998Z,88.50
2018-02-19T01:48:23.152Z,88.40
2018-02-19T01:50:51.296Z,88.50
2018-02-19T01:53:19.452Z,88.00
2018-02-19T01:55:54.962Z,87.90
2018-02-19T01:58:23.116Z,88.10
2018-02-19T02:00:51.270Z,88.20
2018-02-19T02:03:20.199Z,87.50
2018-02-19T02:06:05.446Z,87.40
2018-02-19T02:08:34.386Z,87.80
2018-02-19T02:11:02.521Z,87.80
2018-02-19T02:13:30.688Z,88.20
2018-02-19T02:16:00.829Z,88.20
2018-02-19T02:18:28.989Z,88.30
2018-02-19T02:20:57.125Z,88.30
2018-02-19T02:23:25.281Z,88.20
2018-02-19T02:25:53.421Z,88.30
2018-02-19T02:28:21.581Z,88.20
2018-02-19T02:30:49.724Z,88.20
2018-02-19T02:33:18.650Z,88.30
2018-02-19T02:35:49.934Z,88.30
2018-02-19T02:38:18.093Z,88.00
2018-02-19T02:40:46.230Z,88.20
2018-02-19T02:43:14.398Z,88.40
2018-02-19T02:45:50.171Z,88.50
2018-02-19T02:48:18.324Z,88.70
2018-02-19T02:50:46.467Z,88.70
2018-02-19T02:53:14.629Z,88.80
2018-02-19T02:55:46.753Z,88.80
2018-02-19T02:58:14.910Z,88.40
2018-02-19T03:00:43.079Z,88.70
2018-02-19T03:03:11.275Z,88.60
2018-02-19T03:05:40.453Z,88.70
2018-02-19T03:08:08.693Z,88.60
2018-02-19T03:10:36.858Z,88.80
2018-02-19T03:13:05.125Z,88.70
2018-02-19T03:15:33.281Z,88.70
2018-02-19T03:18:01.445Z,88.40
2018-02-19T03:20:29.574Z,88.40
2018-02-19T03:22:57.733Z,88.40
2018-02-19T03:25:29.042Z,88.70
2018-02-19T03:27:57.207Z,89.60
2018-02-19T03:30:25.342Z,89.80
2018-02-19T03:32:54.280Z,89.90
2018-02-19T03:35:24.397Z,89.40
2018-02-19T03:37:52.551Z,88.80
2018-02-19T03:40:20.701Z,88.40
2018-02-19T03:42:49.635Z,89.00
2018-02-19T03:45:17.773Z,89.00
2018-02-19T03:47:46.677Z,89.30
2018-02-19T03:50:14.885Z,89.30
2018-02-19T03:52:43.016Z,89.30
2018-02-19T03:55:15.433Z,89.50
2018-02-19T03:57:43.565Z,89.50
2018-02-19T04:00:11.724Z,89.70
2018-02-19T04:02:39.886Z,89.60
2018-02-19T04:05:13.362Z,89.90
2018-02-19T04:07:41.496Z,90.10
2018-02-19T04:10:09.682Z,90.00
2018-02-19T04:12:37.811Z,90.00
2018-02-19T04:15:05.968Z,90.00
2018-02-19T04:17:34.100Z,90.10
2018-02-19T04:20:02.290Z,90.00
2018-02-19T04:22:30.400Z,90.00
2018-02-19T04:25:00.276Z,89.80
2018-02-19T04:27:28.416Z,89.70
2018-02-19T04:29:56.555Z,89.70
2018-02-19T04:32:25.492Z,90.00
2018-02-19T04:34:55.616Z,89.70
2018-02-19T04:37:23.773Z,89.30
2018-02-19T04:39:51.917Z,89.30
2018-02-19T04:42:20.845Z,89.50
2018-02-19T04:47:54.885Z,89.90
2018-02-19T04:50:23.021Z,89.90
2018-02-19T04:52:51.947Z,89.70
2018-02-19T04:55:21.045Z,89.70
2018-02-19T04:57:49.217Z,88.90
2018-02-19T05:00:17.352Z,89.50
2018-02-19T05:02:46.274Z,89.40
2018-02-19T05:05:17.418Z,89.40
2018-02-19T05:07:45.579Z,89.20
2018-02-19T05:10:13.720Z,90.00
2018-02-19T05:12:41.883Z,90.10
2018-02-19T05:15:10.017Z,90.20
2018-02-19T05:17:38.209Z,90.10
2018-02-19T05:20:06.349Z,90.10
2018-02-19T05:22:34.489Z,90.30
2018-02-19T05:25:04.369Z,90.40
2018-02-19T05:27:32.515Z,90.30
2018-02-19T05:30:00.705Z,90.00
2018-02-19T05:32:28.849Z,90.10
2018-02-19T05:34:57.014Z,90.10
2018-02-19T05:37:25.920Z,89.90
2018-02-19T05:39:54.080Z,89.90
2018-02-19T05:42:22.217Z,89.80
2018-02-19T05:44:53.944Z,89.80
2018-02-19T05:47:22.080Z,89.70
2018-02-19T05:49:51.004Z,89.70
2018-02-19T05:52:19.141Z,89.70
2018-02-19T05:54:47.297Z,89.70
2018-02-19T05:57:15.437Z,89.80
2018-02-19T05:59:43.622Z,90.20
2018-02-19T06:02:11.744Z,89.60
2018-02-19T06:04:39.904Z,89.60
2018-02-19T06:07:08.801Z,89.80
2018-02-19T06:09:36.949Z,89.80
2018-02-19T06:12:05.078Z,89.90
2018-02-19T06:14:33.244Z,90.00
2018-02-19T06:17:01.397Z,90.00
2018-02-19T06:19:29.538Z,90.10
2018-02-19T06:21:57.709Z,90.00
2018-02-19T06:24:25.844Z,90.10
2018-02-19T06:26:54.972Z,90.10
2018-02-19T06:29:23.108Z,90.00
2018-02-19T06:31:51.268Z,89.40
2018-02-19T06:34:19.407Z,88.90
2018-02-19T06:36:48.332Z,89.10
2018-02-19T06:39:16.460Z,89.10
2018-02-19T06:41:44.613Z,89.40
2018-02-19T06:44:12.749Z,89.80
2018-02-19T06:46:40.904Z,89.50
2018-02-19T06:49:09.804Z,90.20
2018-02-19T06:51:37.969Z,90.20
2018-02-19T06:54:06.878Z,90.40
2018-02-19T06:56:43.481Z,90.30
2018-02-19T06:59:11.617Z,90.30
2018-02-19T07:01:39.789Z,90.30
2018-02-19T07:04:07.932Z,90.20
2018-02-19T07:06:51.085Z,90.20
2018-02-19T07:09:19.219Z,90.20
2018-02-19T07:11:47.393Z,90.10
2018-02-19T07:14:15.520Z,90.10
2018-02-19T07:16:43.652Z,90.20
2018-02-19T07:19:12.569Z,90.30
2018-02-19T07:21:40.692Z,90.00
2018-02-19T07:24:08.849Z,90.20
2018-02-19T07:26:37.033Z,90.00
2018-02-19T07:29:05.214Z,90.20
2018-02-19T07:31:33.365Z,90.00
2018-02-19T07:34:01.602Z,88.60
2018-02-19T07:36:32.971Z,88.60
2018-02-19T07:39:01.124Z,89.20
2018-02-19T07:41:29.264Z,88.20
2018-02-19T07:43:57.460Z,88.30
2018-02-19T07:46:30.071Z,88.70
2018-02-19T07:48:58.220Z,88.60
2018-02-19T07:51:26.365Z,88.80
2018-02-19T07:53:54.521Z,88.50
2018-02-19T07:56:31.059Z,89.50
2018-02-19T07:58:59.217Z,89.20
2018-02-19T08:01:27.365Z,88.40
2018-02-19T08:03:56.286Z,88.40
2018-02-19T08:06:31.944Z,88.40
2018-02-19T08:09:00.096Z,88.50
2018-02-19T08:11:28.237Z,88.30
2018-02-19T08:13:56.392Z,88.20
2018-02-19T08:16:35.797Z,87.80
2018-02-19T08:19:03.952Z,87.80
2018-02-19T08:21:32.092Z,87.60
2018-02-19T08:24:00.257Z,85.40
2018-02-19T08:26:35.912Z,85.20
2018-02-19T08:29:04.072Z,84.50
2018-02-19T08:31:32.219Z,83.80
2018-02-19T08:34:00.381Z,82.10
2018-02-19T08:36:28.581Z,79.30
2018-02-19T08:38:56.910Z,78.20
2018-02-19T08:41:25.862Z,78.60
2018-02-19T08:43:53.973Z,78.50
2018-02-19T08:46:27.409Z,79.00
2018-02-19T08:48:55.594Z,79.00
2018-02-19T08:51:23.721Z,77.90
2018-02-19T08:53:51.864Z,77.50
2018-02-19T08:56:24.003Z,77.70
2018-02-19T08:58:52.140Z,74.20
2018-02-19T09:01:20.297Z,71.60
2018-02-19T09:03:49.198Z,72.00
2018-02-19T09:06:17.344Z,72.00
2018-02-19T09:08:45.478Z,70.70
2018-02-19T09:11:13.624Z,69.10
2018-02-19T09:13:41.749Z,67.00
2018-02-19T09:16:09.897Z,66.30
2018-02-19T09:18:38.025Z,65.80
2018-02-19T09:21:06.936Z,66.40
2018-02-19T09:23:35.069Z,65.50
2018-02-19T09:26:15.901Z,65.60
2018-02-19T09:28:44.029Z,64.20
2018-02-19T09:31:12.948Z,64.10
2018-02-19T09:33:41.745Z,64.10
2018-02-19T09:36:09.907Z,63.20
2018-02-19T09:38:38.049Z,63.80
2018-02-19T09:41:06.177Z,63.80
2018-02-19T09:43:34.329Z,62.80
2018-02-19T09:46:03.424Z,61.80
2018-02-19T09:48:32.337Z,62.20
2018-02-19T09:51:00.461Z,62.20
2018-02-19T09:53:29.377Z,61.80
2018-02-19T09:55:57.506Z,61.80
2018-02-19T09:58:25.652Z,60.70
2018-02-19T10:00:53.785Z,61.90
2018-02-19T10:03:21.941Z,60.00
2018-02-19T10:05:50.841Z,60.20
2018-02-19T10:08:18.997Z,60.20
2018-02-19T10:10:47.905Z,60.70
2018-02-19T10:13:16.065Z,60.70
2018-02-19T10:15:44.198Z,59.40
2018-02-19T10:18:12.342Z,60.50
2018-02-19T10:20:40.469Z,59.60
2018-02-19T10:23:08.618Z,57.90
2018-02-19T10:25:40.141Z,56.80
2018-02-19T10:28:08.286Z,57.60
2018-02-19T10:30:36.409Z,56.70
2018-02-19T10:33:04.562Z,56.90
2018-02-19T10:35:33.450Z,58.00
2018-02-19T10:38:01.601Z,58.00
2018-02-19T10:40:29.729Z,56.10
2018-02-19T10:42:58.153Z,53.40
2018-02-19T10:45:26.293Z,52.10
2018-02-19T10:47:54.425Z,52.50
2018-02-19T10:50:22.568Z,53.40
2018-02-19T10:52:51.465Z,53.70
2018-02-19T10:55:19.633Z,53.70
2018-02-19T10:57:47.801Z,53.80
2018-02-19T11:00:17.463Z,54.40
2018-02-19T11:02:45.589Z,54.40
2018-02-19T11:05:13.729Z,54.10
2018-02-19T11:07:41.859Z,55.10
2018-02-19T11:10:10.009Z,56.00
2018-02-19T11:12:38.141Z,54.10
2018-02-19T11:15:06.297Z,53.90
2018-02-19T11:17:34.421Z,55.40
2018-02-19T11:20:03.329Z,53.10
2018-02-19T11:22:31.461Z,53.10
2018-02-19T11:24:59.608Z,53.10
2018-02-19T11:27:27.733Z,54.60
2018-02-19T11:29:55.885Z,54.70
2018-02-19T11:32:24.901Z,55.50
2018-02-19T11:34:53.146Z,55.50
2018-02-19T11:37:21.343Z,55.20
2018-02-19T11:39:49.550Z,54.90
2018-02-19T11:42:18.549Z,54.40
2018-02-19T11:44:46.684Z,54.40
2018-02-19T11:47:15.608Z,50.20
2018-02-19T11:49:43.736Z,50.20
2018-02-19T11:52:12.674Z,49.60
2018-02-19T11:54:40.869Z,49.50
2018-02-19T11:57:08.981Z,49.30
2018-02-19T11:59:37.133Z,47.70
2018-02-19T12:02:05.286Z,48.70
2018-02-19T12:04:33.510Z,48.80
2018-02-19T12:07:01.698Z,47.80
2018-02-19T12:09:29.834Z,49.60
2018-02-19T12:11:58.753Z,50.90
2018-02-19T12:14:26.885Z,50.60
2018-02-19T12:16:55.029Z,50.50
2018-02-19T12:19:23.160Z,49.20
2018-02-19T12:21:52.145Z,52.10
2018-02-19T12:24:21.045Z,52.30
2018-02-19T12:26:49.192Z,52.30
2018-02-19T12:29:17.318Z,52.30
2018-02-19T12:31:45.480Z,51.40
2018-02-19T12:34:13.610Z,51.00
2018-02-19T12:36:41.738Z,50.30
2018-02-19T12:39:09.890Z,50.00
2018-02-19T12:41:38.073Z,50.50
2018-02-19T12:44:06.228Z,50.40
2018-02-19T12:46:34.357Z,51.00
2018-02-19T12:49:02.502Z,51.50
2018-02-19T12:51:30.637Z,50.90
2018-02-19T12:53:59.553Z,50.30
2018-02-19T12:56:27.689Z,50.30
2018-02-19T12:58:55.836Z,48.30
2018-02-19T13:01:23.961Z,48.60
2018-02-19T13:03:52.109Z,46.60
2018-02-19T13:06:21.013Z,44.80
2018-02-19T13:08:49.966Z,45.10
2018-02-19T13:11:18.086Z,45.10
2018-02-19T13:13:46.238Z,45.20
2018-02-19T13:16:14.364Z,46.80
2018-02-19T13:18:42.505Z,46.90
2018-02-19T13:21:10.693Z,45.80
2018-02-19T13:23:38.793Z,47.60
2018-02-19T13:26:06.945Z,46.00
2018-02-19T13:28:35.166Z,46.50
2018-02-19T13:31:03.252Z,48.10
2018-02-19T13:33:32.153Z,48.60
2018-02-19T13:36:01.077Z,46.70
2018-02-19T13:38:29.210Z,46.60
2018-02-19T13:40:57.377Z,46.40
2018-02-19T13:46:27.174Z,46.30
2018-02-19T13:48:55.296Z,47.20
2018-02-19T13:51:24.210Z,46.80
2018-02-19T13:53:52.356Z,46.80
2018-02-19T13:56:21.288Z,48.90
2018-02-19T13:58:49.416Z,48.90
2018-02-19T14:01:18.338Z,48.80
2018-02-19T14:03:46.467Z,48.70
2018-02-19T14:06:14.697Z,48.30
2018-02-19T14:08:42.833Z,47.90
2018-02-19T14:11:11.755Z,46.90
2018-02-19T14:13:39.888Z,46.80
2018-02-19T14:16:08.796Z,47.40
2018-02-19T14:18:36.952Z,47.40
2018-02-19T14:21:05.870Z,49.60
2018-02-19T14:23:33.996Z,50.30
2018-02-19T14:26:02.137Z,48.50
2018-02-19T14:28:30.289Z,49.50
2018-02-19T14:30:58.417Z,48.80
2018-02-19T14:33:26.565Z,49.70
2018-02-19T14:35:54.701Z,49.80
2018-02-19T14:38:22.853Z,49.80
2018-02-19T14:40:51.766Z,48.90
2018-02-19T14:43:19.933Z,48.90
2018-02-19T14:45:48.063Z,49.70
2018-02-19T14:48:16.209Z,49.40
2018-02-19T14:50:44.336Z,51.10
2018-02-19T14:53:13.273Z,51.60
2018-02-19T14:55:41.405Z,51.60
2018-02-19T14:58:10.323Z,51.70
2018-02-19T15:00:38.456Z,51.70
2018-02-19T15:03:06.609Z,51.80
2018-02-19T15:05:34.740Z,51.00
2018-02-19T15:08:03.653Z,51.80
2018-02-19T15:10:31.797Z,51.90
2018-02-19T15:12:59.945Z,52.30
2018-02-19T15:15:28.840Z,52.40
2018-02-19T15:17:57.750Z,52.10
2018-02-19T15:20:25.876Z,52.10
2018-02-19T15:22:54.036Z,52.80
2018-02-19T15:25:22.226Z,53.10
2018-02-19T15:27:50.346Z,54.10
2018-02-19T15:30:18.469Z,54.50
2018-02-19T15:32:46.612Z,54.40
2018-02-19T15:35:14.731Z,54.30
2018-02-19T15:37:43.641Z,55.30
2018-02-19T15:40:11.781Z,55.20
2018-02-19T15:42:39.920Z,55.80
2018-02-19T15:45:08.065Z,56.50
2018-02-19T15:47:36.221Z,56.80
2018-02-19T15:50:05.161Z,57.40
2018-02-19T15:52:33.297Z,57.40
2018-02-19T15:55:01.455Z,57.40
2018-02-19T15:57:29.635Z,57.80
2018-02-19T15:59:58.613Z,58.60
2018-02-19T16:02:27.513Z,58.70
2018-02-19T16:04:56.433Z,59.00
2018-02-19T16:07:24.576Z,59.00
2018-02-19T16:09:53.489Z,60.10
2018-02-19T16:12:21.632Z,60.10
2018-02-19T16:14:49.793Z,60.70
2018-02-19T16:17:17.931Z,60.70
2018-02-19T16:19:46.108Z,61.50
2018-02-19T16:22:14.241Z,62.70
2018-02-19T16:24:43.132Z,63.90
2018-02-19T16:27:11.281Z,63.90
2018-02-19T16:29:39.529Z,64.30
2018-02-19T16:32:07.698Z,65.20
2018-02-19T16:34:35.825Z,65.80
2018-02-19T16:37:04.737Z,66.60
2018-02-19T16:39:32.865Z,66.60
2018-02-19T16:42:01.011Z,66.70
2018-02-19T16:44:29.155Z,67.00
2018-02-19T16:46:58.265Z,67.40
2018-02-19T16:49:26.397Z,67.60
2018-02-19T16:51:55.310Z,68.70
2018-02-19T16:54:23.436Z,68.70
2018-02-19T16:56:51.598Z,69.00
2018-02-19T16:59:19.732Z,70.10
2018-02-19T17:01:47.891Z,70.50
2018-02-19T17:04:16.025Z,71.00
2018-02-19T17:06:44.177Z,71.00
2018-02-19T17:09:12.313Z,71.10
2018-02-19T17:11:40.444Z,71.60
2018-02-19T17:14:09.373Z,72.50
2018-02-19T17:16:37.509Z,72.40
2018-02-19T17:19:05.653Z,72.60
2018-02-19T17:21:33.812Z,72.30
2018-02-19T17:24:01.966Z,72.50
2018-02-19T17:26:30.113Z,72.60
2018-02-19T17:28:59.021Z,72.90
2018-02-19T17:31:27.925Z,73.50
2018-02-19T17:33:56.096Z,73.50
2018-02-19T17:36:24.238Z,73.60
2018-02-19T17:38:53.165Z,74.70
2018-02-19T17:41:21.301Z,74.60
2018-02-19T17:43:50.225Z,76.30
2018-02-19T17:46:18.363Z,75.70
2018-02-19T17:48:47.284Z,75.40
2018-02-19T17:51:15.424Z,76.10
2018-02-19T17:53:43.584Z,76.20
2018-02-19T17:56:11.729Z,76.80
2018-02-19T17:58:39.886Z,76.80
2018-02-19T18:01:08.033Z,77.30
2018-02-19T18:03:36.961Z,77.40
2018-02-19T18:06:05.097Z,77.40
2018-02-19T18:08:34.029Z,77.20
2018-02-19T18:11:02.164Z,77.10
2018-02-19T18:13:31.069Z,77.00
2018-02-19T18:15:59.239Z,76.50
2018-02-19T18:18:27.382Z,77.10
2018-02-19T18:20:55.537Z,77.70
2018-02-19T18:23:23.673Z,78.80
2018-02-19T18:25:51.837Z,78.70
2018-02-19T18:28:19.972Z,79.00
2018-02-19T18:30:48.161Z,79.30
2018-02-19T18:33:17.061Z,79.20
2018-02-19T18:35:45.981Z,79.40
2018-02-19T18:38:14.124Z,79.40
2018-02-19T18:40:43.050Z,79.50
2018-02-19T18:43:11.194Z,79.50
2018-02-19T18:45:39.489Z,79.70
2018-02-19T18:48:07.629Z,80.00
2018-02-19T18:50:35.793Z,79.80
2018-02-19T18:53:04.700Z,80.00
2018-02-19T18:55:32.899Z,80.00
2018-02-19T18:58:01.805Z,80.50
2018-02-19T19:00:29.950Z,80.50
2018-02-19T19:02:58.113Z,81.10
2018-02-19T19:05:27.021Z,81.30
2018-02-19T19:08:13.039Z,81.30
2018-02-19T19:10:53.829Z,81.40
2018-02-19T19:13:21.961Z,81.30
2018-02-19T19:15:50.110Z,81.50
2018-02-19T19:18:19.035Z,81.80
2018-02-19T19:20:47.176Z,81.70
2018-02-19T19:23:16.100Z,81.80
2018-02-19T19:25:44.237Z,81.80
2018-02-19T19:28:12.404Z,82.00
2018-02-19T19:30:41.308Z,82.90
2018-02-19T19:33:09.465Z,82.80
2018-02-19T19:35:38.372Z,83.00
2018-02-19T19:38:06.568Z,83.00
2018-02-19T19:40:34.722Z,83.30
2018-02-19T19:43:02.881Z,83.70
2018-02-19T19:45:31.785Z,83.80
2018-02-19T19:47:59.943Z,83.70
2018-02-19T19:50:28.844Z,83.80
2018-02-19T19:52:57.002Z,83.80
2018-02-19T19:55:25.904Z,83.90
2018-02-19T19:57:54.837Z,83.60
2018-02-19T20:00:22.969Z,83.50
2018-02-19T20:02:51.869Z,84.10
2018-02-19T20:05:20.037Z,84.00
2018-02-19T20:07:48.177Z,83.80
2018-02-19T20:10:16.357Z,84.00
2018-02-19T20:12:45.297Z,84.10
2018-02-19T20:15:13.444Z,84.10
2018-02-19T20:17:41.583Z,84.00
2018-02-19T20:20:09.788Z,84.00
2018-02-19T20:22:37.921Z,83.90
2018-02-19T20:25:06.149Z,83.90
2018-02-19T20:27:34.326Z,83.80
2018-02-19T20:30:02.499Z,84.20
2018-02-19T20:32:30.637Z,84.30
2018-02-19T20:34:58.805Z,84.50
2018-02-19T20:37:26.957Z,84.60
2018-02-19T20:39:55.117Z,85.60
2018-02-19T20:42:23.256Z,84.90
2018-02-19T20:44:51.416Z,84.80
2018-02-19T20:47:20.316Z,84.70
2018-02-19T20:49:48.542Z,84.70
2018-02-19T20:52:16.682Z,84.80
2018-02-19T20:54:44.845Z,84.80
2018-02-19T20:57:12.984Z,84.90
2018-02-19T20:59:41.152Z,85.10
2018-02-19T21:02:09.289Z,86.00
2018-02-19T21:04:37.430Z,85.10
2018-02-19T21:07:05.585Z,85.00
2018-02-19T21:09:34.489Z,85.00
2018-02-19T21:12:02.646Z,85.00
2018-02-19T21:14:31.569Z,85.00
2018-02-19T21:16:59.725Z,85.00
2018-02-19T21:19:28.629Z,85.10
2018-02-19T21:21:56.814Z,85.10
2018-02-19T21:24:24.965Z,85.30
2018-02-19T21:26:57.545Z,86.60
2018-02-19T21:29:25.692Z,85.80
2018-02-19T21:31:53.845Z,85.50
2018-02-19T21:34:21.988Z,86.10
2018-02-19T21:36:50.145Z,86.60
2018-02-19T21:39:18.281Z,86.70
2018-02-19T21:41:47.220Z,86.50
2018-02-19T21:44:15.352Z,86.50
2018-02-19T21:46:44.278Z,86.50
2018-02-19T21:49:12.412Z,86.50
2018-02-19T21:51:40.618Z,86.30
2018-02-19T21:54:08.785Z,86.20
2018-02-19T21:56:36.945Z,86.40
2018-02-19T21:59:05.848Z,86.50
2018-02-19T22:01:34.005Z,86.40
2018-02-19T22:04:02.936Z,86.30
2018-02-19T22:06:31.080Z,86.30
2018-02-19T22:09:00.022Z,86.30
2018-02-19T22:11:28.161Z,86.20
2018-02-19T22:13:56.358Z,86.40
2018-02-19T22:16:24.525Z,86.70
2018-02-19T22:18:52.681Z,86.80
2018-02-19T22:21:20.829Z,86.90
2018-02-19T22:23:49.761Z,87.10
2018-02-19T22:26:17.901Z,87.10
2018-02-19T22:28:46.824Z,87.60
2018-02-19T22:31:14.969Z,87.50
2018-02-19T22:33:43.125Z,87.70
2018-02-19T22:36:12.025Z,88.00
2018-02-19T22:38:40.944Z,87.60
2018-02-19T22:41:09.085Z,87.50
2018-02-19T22:43:37.241Z,87.80
2018-02-19T22:46:05.388Z,88.00
2018-02-19T22:48:33.535Z,88.20
2018-02-19T22:51:01.735Z,88.20
2018-02-19T22:53:29.872Z,88.00
2018-02-19T22:55:58.041Z,87.90
2018-02-19T22:58:26.260Z,88.10
2018-02-19T23:00:54.421Z,88.40
2018-02-19T23:03:22.556Z,88.50
2018-02-19T23:05:50.717Z,88.40
2018-02-19T23:08:19.616Z,88.40
2018-02-19T23:10:48.544Z,88.70
2018-02-19T23:13:16.686Z,88.60
2018-02-19T23:15:44.844Z,88.70
2018-02-19T23:18:13.752Z,89.10
2018-02-19T23:20:41.921Z,89.00
2018-02-19T23:23:10.066Z,89.00
2018-02-19T23:25:38.228Z,89.20
2018-02-19T23:28:06.365Z,89.10
2018-02-19T23:30:34.541Z,88.90
2018-02-19T23:33:02.673Z,89.20
2018-02-19T23:35:30.834Z,89.00
2018-02-19T23:37:58.974Z,89.00
2018-02-19T23:40:27.146Z,88.90
2018-02-19T23:42:55.280Z,88.90
2018-02-19T23:45:23.408Z,89.10
2018-02-19T23:47:51.557Z,89.20
2018-02-19T23:50:19.690Z,89.20
2018-02-19T23:52:48.628Z,89.30
2018-02-19T23:55:16.770Z,89.30
2018-02-19T23:57:44.925Z,89.30
